Terminal Aerodrome Forecast
Issued by NWS

Home | Current Version | Previous Version | Text Only | Print | Product List | Glossary On
Versions: 1 2 3 4 5 6 7 8 9 10 11 12 13 14
000
FTUS42 KMLB 220300 AAA
TAFSFB
TAF AMD
KSFB 220341Z 2204/2224 VRB03KT 4SM -RA SCT050 BKN060 OVC100
     FM220600 00000KT 3SM -RA BR SCT010 BKN015 OVC040
     FM221500 17008KT P6SM VCSH SCT020 BKN050 BKN100=

USA.gov is the U.S. government's official web portal to all federal, state and local government web resources and services.